sensor_id;sensor_type;location;lat;lon;timestamp;pressure;altitude;pressure_sealevel;temperature;humidity
10881;BME280;5493;48.884;8.338;2022-10-12T00:00:17;100905.47;;;13.63;100.00
10881;BME280;5493;48.884;8.338;2022-10-12T00:02:43;100916.59;;;13.55;100.00
10881;BME280;5493;48.884;8.338;2022-10-12T00:05:10;100911.34;;;13.36;100.00
10881;BME280;5493;48.884;8.338;2022-10-12T00:07:36;100914.25;;;13.16;100.00
10881;BME280;5493;48.884;8.338;2022-10-12T00:10:04;100916.47;;;12.94;100.00
10881;BME280;5493;48.884;8.338;2022-10-12T00:12:30;100927.13;;;12.89;100.00
10881;BME280;5493;48.884;8.338;2022-10-12T00:14:57;100924.41;;;12.89;100.00
10881;BME280;5493;48.884;8.338;2022-10-12T00:17:25;100915.13;;;12.78;100.00
10881;BME280;5493;48.884;8.338;2022-10-12T00:19:51;100913.25;;;12.79;100.00
10881;BME280;5493;48.884;8.338;2022-10-12T00:22:18;100914.16;;;12.98;100.00
10881;BME280;5493;48.884;8.338;2022-10-12T00:24:45;100918.84;;;13.15;100.00
10881;BME280;5493;48.884;8.338;2022-10-12T00:27:12;100915.13;;;13.35;100.00
10881;BME280;5493;48.884;8.338;2022-10-12T00:29:38;100901.34;;;13.36;100.00
10881;BME280;5493;48.884;8.338;2022-10-12T00:32:05;100904.91;;;13.37;100.00
10881;BME280;5493;48.884;8.338;2022-10-12T00:34:33;100920.97;;;13.31;100.00
10881;BME280;5493;48.884;8.338;2022-10-12T00:37:00;100909.41;;;13.43;100.00
10881;BME280;5493;48.884;8.338;2022-10-12T00:39:26;100910.41;;;13.48;100.00
10881;BME280;5493;48.884;8.338;2022-10-12T00:41:53;100913.97;;;13.24;100.00
10881;BME280;5493;48.884;8.338;2022-10-12T00:44:33;100918.50;;;13.30;100.00
10881;BME280;5493;48.884;8.338;2022-10-12T00:47:02;100921.38;;;13.10;100.00
10881;BME280;5493;48.884;8.338;2022-10-12T00:49:30;100916.81;;;13.04;100.00
10881;BME280;5493;48.884;8.338;2022-10-12T00:52:02;100916.56;;;12.81;100.00
10881;BME280;5493;48.884;8.338;2022-10-12T00:54:32;100913.94;;;12.68;100.00
10881;BME280;5493;48.884;8.338;2022-10-12T00:57:02;100918.41;;;12.80;100.00
10881;BME280;5493;48.884;8.338;2022-10-12T00:59:31;100919.09;;;12.76;100.00
10881;BME280;5493;48.884;8.338;2022-10-12T01:02:00;100918.09;;;12.70;100.00
10881;BME280;5493;48.884;8.338;2022-10-12T01:04:29;100921.63;;;12.71;100.00
10881;BME280;5493;48.884;8.338;2022-10-12T01:06:58;100915.31;;;12.77;100.00
10881;BME280;5493;48.884;8.338;2022-10-12T01:09:27;100909.59;;;12.92;100.00
10881;BME280;5493;48.884;8.338;2022-10-12T01:11:55;100915.88;;;13.17;100.00
10881;BME280;5493;48.884;8.338;2022-10-12T01:14:22;100924.41;;;13.20;100.00
10881;BME280;5493;48.884;8.338;2022-10-12T01:16:52;100915.28;;;13.15;100.00
10881;BME280;5493;48.884;8.338;2022-10-12T01:19:39;100921.25;;;12.92;100.00
10881;BME280;5493;48.884;8.338;2022-10-12T01:22:17;100913.91;;;12.99;100.00
10881;BME280;5493;48.884;8.338;2022-10-12T01:24:50;100914.31;;;13.03;100.00
10881;BME280;5493;48.884;8.338;2022-10-12T01:27:42;100916.13;;;13.15;100.00
10881;BME280;5493;48.884;8.338;2022-10-12T01:30:17;100917.81;;;13.10;100.00
10881;BME280;5493;48.884;8.338;2022-10-12T01:32:57;100918.00;;;13.15;100.00
10881;BME280;5493;48.884;8.338;2022-10-12T01:35:33;100917.03;;;13.09;100.00
10881;BME280;5493;48.884;8.338;2022-10-12T01:38:10;100906.53;;;13.19;100.00
10881;BME280;5493;48.884;8.338;2022-10-12T01:40:42;100906.25;;;12.96;100.00
10881;BME280;5493;48.884;8.338;2022-10-12T01:43:09;100909.13;;;13.01;100.00
10881;BME280;5493;48.884;8.338;2022-10-12T01:45:37;100909.78;;;12.97;100.00
10881;BME280;5493;48.884;8.338;2022-10-12T01:48:04;100908.81;;;12.84;100.00
10881;BME280;5493;48.884;8.338;2022-10-12T01:50:38;100908.03;;;12.84;100.00
10881;BME280;5493;48.884;8.338;2022-10-12T01:53:19;100897.53;;;12.94;100.00
10881;BME280;5493;48.884;8.338;2022-10-12T01:55:52;100906.09;;;12.91;100.00
10881;BME280;5493;48.884;8.338;2022-10-12T01:58:29;100913.13;;;12.92;100.00
10881;BME280;5493;48.884;8.338;2022-10-12T02:01:05;100901.34;;;12.87;100.00
10881;BME280;5493;48.884;8.338;2022-10-12T02:03:38;100913.78;;;12.94;100.00
10881;BME280;5493;48.884;8.338;2022-10-12T02:06:11;100915.59;;;13.00;100.00
10881;BME280;5493;48.884;8.338;2022-10-12T02:08:41;100900.63;;;12.98;100.00
10881;BME280;5493;48.884;8.338;2022-10-12T02:11:13;100908.19;;;12.89;100.00
10881;BME280;5493;48.884;8.338;2022-10-12T02:13:43;100909.97;;;13.02;100.00
10881;BME280;5493;48.884;8.338;2022-10-12T02:16:14;100905.72;;;12.81;100.00
10881;BME280;5493;48.884;8.338;2022-10-12T02:18:44;100900.63;;;12.98;100.00
10881;BME280;5493;48.884;8.338;2022-10-12T02:21:15;100899.09;;;13.08;100.00
10881;BME280;5493;48.884;8.338;2022-10-12T02:23:44;100894.47;;;13.15;100.00
10881;BME280;5493;48.884;8.338;2022-10-12T02:26:14;100894.47;;;13.15;100.00
10881;BME280;5493;48.884;8.338;2022-10-12T02:28:43;100895.06;;;13.17;100.00
10881;BME280;5493;48.884;8.338;2022-10-12T02:31:16;100898.78;;;13.23;100.00
10881;BME280;5493;48.884;8.338;2022-10-12T02:33:47;100884.19;;;13.42;100.00
10881;BME280;5493;48.884;8.338;2022-10-12T02:36:21;100882.56;;;13.41;100.00
10881;BME280;5493;48.884;8.338;2022-10-12T02:38:54;100885.66;;;13.45;100.00
10881;BME280;5493;48.884;8.338;2022-10-12T02:41:24;100882.50;;;13.48;100.00
10881;BME280;5493;48.884;8.338;2022-10-12T02:43:56;100888.69;;;13.55;100.00
10881;BME280;5493;48.884;8.338;2022-10-12T02:46:26;100888.47;;;13.56;100.00
10881;BME280;5493;48.884;8.338;2022-10-12T02:48:55;100887.97;;;13.41;100.00
10881;BME280;5493;48.884;8.338;2022-10-12T02:51:23;100889.25;;;13.57;100.00
10881;BME280;5493;48.884;8.338;2022-10-12T02:53:51;100897.22;;;13.09;100.00
10881;BME280;5493;48.884;8.338;2022-10-12T02:56:18;100888.16;;;13.21;100.00
10881;BME280;5493;48.884;8.338;2022-10-12T02:58:46;100885.88;;;13.43;100.00
10881;BME280;5493;48.884;8.338;2022-10-12T03:01:13;100883.88;;;13.32;100.00
10881;BME280;5493;48.884;8.338;2022-10-12T03:03:42;100884.16;;;13.24;100.00
10881;BME280;5493;48.884;8.338;2022-10-12T03:06:09;100884.78;;;13.26;100.00
10881;BME280;5493;48.884;8.338;2022-10-12T03:08:36;100883.50;;;13.28;100.00
10881;BME280;5493;48.884;8.338;2022-10-12T03:11:03;100889.72;;;13.11;100.00
10881;BME280;5493;48.884;8.338;2022-10-12T03:13:31;100892.31;;;13.42;100.00
10881;BME280;5493;48.884;8.338;2022-10-12T03:16:02;100881.38;;;13.55;100.00
10881;BME280;5493;48.884;8.338;2022-10-12T03:18:28;100878.38;;;13.63;100.00
10881;BME280;5493;48.884;8.338;2022-10-12T03:20:56;100884.53;;;13.52;100.00
10881;BME280;5493;48.884;8.338;2022-10-12T03:23:23;100888.47;;;13.31;100.00
10881;BME280;5493;48.884;8.338;2022-10-12T03:25:50;100890.09;;;13.14;100.00
10881;BME280;5493;48.884;8.338;2022-10-12T03:28:16;100887.16;;;13.41;100.00
10881;BME280;5493;48.884;8.338;2022-10-12T03:30:43;100885.50;;;13.58;100.00
10881;BME280;5493;48.884;8.338;2022-10-12T03:33:10;100885.41;;;13.46;100.00
10881;BME280;5493;48.884;8.338;2022-10-12T03:35:37;100882.88;;;13.51;100.00
10881;BME280;5493;48.884;8.338;2022-10-12T03:38:05;100888.09;;;13.28;100.00
10881;BME280;5493;48.884;8.338;2022-10-12T03:40:31;100890.72;;;13.59;100.00
10881;BME280;5493;48.884;8.338;2022-10-12T03:43:00;100891.84;;;13.70;100.00
10881;BME280;5493;48.884;8.338;2022-10-12T03:45:26;100891.47;;;13.48;100.00
10881;BME280;5493;48.884;8.338;2022-10-12T03:47:53;100898.09;;;13.52;100.00
10881;BME280;5493;48.884;8.338;2022-10-12T03:50:19;100890.16;;;13.51;100.00
10881;BME280;5493;48.884;8.338;2022-10-12T03:52:46;100889.97;;;13.52;100.00
10881;BME280;5493;48.884;8.338;2022-10-12T03:55:14;100903.69;;;13.32;100.00
10881;BME280;5493;48.884;8.338;2022-10-12T03:57:40;100894.97;;;13.30;100.00
10881;BME280;5493;48.884;8.338;2022-10-12T04:00:08;100899.06;;;13.15;100.00
10881;BME280;5493;48.884;8.338;2022-10-12T04:02:35;100890.25;;;13.44;100.00
10881;BME280;5493;48.884;8.338;2022-10-12T04:05:02;100899.25;;;13.13;100.00
10881;BME280;5493;48.884;8.338;2022-10-12T04:07:29;100903.53;;;12.96;100.00
10881;BME280;5493;48.884;8.338;2022-10-12T04:09:55;100904.47;;;13.15;100.00
10881;BME280;5493;48.884;8.338;2022-10-12T04:12:23;100901.59;;;13.03;100.00
10881;BME280;5493;48.884;8.338;2022-10-12T04:14:50;100904.59;;;13.26;100.00
10881;BME280;5493;48.884;8.338;2022-10-12T04:17:17;100907.91;;;13.47;100.00
10881;BME280;5493;48.884;8.338;2022-10-12T04:19:44;100907.53;;;13.43;100.00
10881;BME280;5493;48.884;8.338;2022-10-12T04:22:10;100902.00;;;13.56;100.00
10881;BME280;5493;48.884;8.338;2022-10-12T04:24:37;100904.03;;;13.61;100.00
10881;BME280;5493;48.884;8.338;2022-10-12T04:27:03;100912.88;;;13.50;100.00
10881;BME280;5493;48.884;8.338;2022-10-12T04:29:31;100914.63;;;13.44;100.00
10881;BME280;5493;48.884;8.338;2022-10-12T04:31:58;100913.38;;;13.22;100.00
10881;BME280;5493;48.884;8.338;2022-10-12T04:34:24;100915.59;;;13.50;100.00
10881;BME280;5493;48.884;8.338;2022-10-12T04:36:51;100910.50;;;13.42;100.00
10881;BME280;5493;48.884;8.338;2022-10-12T04:39:17;100920.41;;;13.48;100.00
10881;BME280;5493;48.884;8.338;2022-10-12T04:41:44;100913.66;;;13.57;100.00
10881;BME280;5493;48.884;8.338;2022-10-12T04:44:10;100910.53;;;13.60;100.00
10881;BME280;5493;48.884;8.338;2022-10-12T04:46:38;100911.69;;;13.64;100.00
10881;BME280;5493;48.884;8.338;2022-10-12T04:49:05;100919.16;;;13.68;100.00
10881;BME280;5493;48.884;8.338;2022-10-12T04:51:33;100913.59;;;13.63;100.00
10881;BME280;5493;48.884;8.338;2022-10-12T04:54:00;100927.00;;;13.58;100.00
10881;BME280;5493;48.884;8.338;2022-10-12T04:56:26;100928.31;;;13.49;100.00
10881;BME280;5493;48.884;8.338;2022-10-12T04:58:53;100937.44;;;13.55;100.00
10881;BME280;5493;48.884;8.338;2022-10-12T05:01:19;100936.94;;;13.40;100.00
10881;BME280;5493;48.884;8.338;2022-10-12T05:03:47;100938.31;;;13.24;100.00
10881;BME280;5493;48.884;8.338;2022-10-12T05:06:14;100932.69;;;12.63;100.00
10881;BME280;5493;48.884;8.338;2022-10-12T05:08:40;100939.16;;;12.62;100.00
10881;BME280;5493;48.884;8.338;2022-10-12T05:11:07;100942.44;;;12.70;100.00
10881;BME280;5493;48.884;8.338;2022-10-12T05:13:33;100937.69;;;12.97;100.00
10881;BME280;5493;48.884;8.338;2022-10-12T05:16:00;100938.28;;;12.99;100.00
10881;BME280;5493;48.884;8.338;2022-10-12T05:18:26;100935.38;;;13.01;100.00
10881;BME280;5493;48.884;8.338;2022-10-12T05:20:54;100943.78;;;12.55;100.00
10881;BME280;5493;48.884;8.338;2022-10-12T05:23:21;100938.16;;;12.56;100.00
10881;BME280;5493;48.884;8.338;2022-10-12T05:25:47;100934.09;;;12.72;100.00
10881;BME280;5493;48.884;8.338;2022-10-12T05:28:14;100934.41;;;12.57;100.00
10881;BME280;5493;48.884;8.338;2022-10-12T05:30:40;100926.84;;;12.97;100.00
10881;BME280;5493;48.884;8.338;2022-10-12T05:33:07;100928.59;;;12.85;100.00
10881;BME280;5493;48.884;8.338;2022-10-12T05:35:33;100927.75;;;12.91;100.00
10881;BME280;5493;48.884;8.338;2022-10-12T05:38:01;100919.38;;;12.93;100.00
10881;BME280;5493;48.884;8.338;2022-10-12T05:40:28;100913.06;;;12.74;100.00
10881;BME280;5493;48.884;8.338;2022-10-12T05:42:54;100912.59;;;12.83;100.00
10881;BME280;5493;48.884;8.338;2022-10-12T05:45:21;100914.69;;;13.06;100.00
10881;BME280;5493;48.884;8.338;2022-10-12T05:47:47;100913.25;;;13.10;100.00
10881;BME280;5493;48.884;8.338;2022-10-12T05:50:14;100923.84;;;12.80;100.00
10881;BME280;5493;48.884;8.338;2022-10-12T05:52:41;100927.47;;;12.68;100.00
10881;BME280;5493;48.884;8.338;2022-10-12T05:55:09;100926.94;;;12.53;100.00
10881;BME280;5493;48.884;8.338;2022-10-12T05:57:36;100931.78;;;12.44;100.00
10881;BME280;5493;48.884;8.338;2022-10-12T06:00:04;100939.25;;;12.42;100.00
10881;BME280;5493;48.884;8.338;2022-10-12T06:02:31;100938.44;;;12.42;100.00
10881;BME280;5493;48.884;8.338;2022-10-12T06:04:57;100936.16;;;12.39;100.00
10881;BME280;5493;48.884;8.338;2022-10-12T06:07:24;100942.03;;;12.29;100.00
10881;BME280;5493;48.884;8.338;2022-10-12T06:09:51;100942.19;;;12.41;100.00
10881;BME280;5493;48.884;8.338;2022-10-12T06:12:19;100943.00;;;12.41;100.00
10881;BME280;5493;48.884;8.338;2022-10-12T06:14:45;100952.31;;;12.07;100.00
10881;BME280;5493;48.884;8.338;2022-10-12T06:17:12;100958.13;;;12.11;100.00
10881;BME280;5493;48.884;8.338;2022-10-12T06:19:38;100958.75;;;12.06;100.00
10881;BME280;5493;48.884;8.338;2022-10-12T06:22:05;100957.94;;;11.99;100.00
10881;BME280;5493;48.884;8.338;2022-10-12T06:24:31;100966.63;;;12.14;100.00
10881;BME280;5493;48.884;8.338;2022-10-12T06:26:58;100959.72;;;12.25;100.00
10881;BME280;5493;48.884;8.338;2022-10-12T06:29:25;100964.31;;;12.24;100.00
10881;BME280;5493;48.884;8.338;2022-10-12T06:31:52;100967.59;;;12.33;100.00
10881;BME280;5493;48.884;8.338;2022-10-12T06:34:19;100976.63;;;12.14;100.00
10881;BME280;5493;48.884;8.338;2022-10-12T06:36:46;100967.41;;;12.28;100.00
10881;BME280;5493;48.884;8.338;2022-10-12T06:39:12;100975.97;;;12.18;100.00
10881;BME280;5493;48.884;8.338;2022-10-12T06:41:39;100975.97;;;12.12;100.00
10881;BME280;5493;48.884;8.338;2022-10-12T06:44:06;100985.56;;;12.14;100.00
10881;BME280;5493;48.884;8.338;2022-10-12T06:46:34;100977.22;;;12.16;100.00
10881;BME280;5493;48.884;8.338;2022-10-12T06:49:00;100984.25;;;12.23;100.00
10881;BME280;5493;48.884;8.338;2022-10-12T06:51:27;100974.50;;;12.16;100.00
10881;BME280;5493;48.884;8.338;2022-10-12T06:53:54;100983.88;;;12.13;100.00
10881;BME280;5493;48.884;8.338;2022-10-12T06:56:21;100971.81;;;12.16;100.00
10881;BME280;5493;48.884;8.338;2022-10-12T06:58:52;100964.00;;;12.46;100.00
10881;BME280;5493;48.884;8.338;2022-10-12T07:01:19;100965.34;;;12.68;100.00
10881;BME280;5493;48.884;8.338;2022-10-12T07:03:47;100957.28;;;12.93;100.00
10881;BME280;5493;48.884;8.338;2022-10-12T07:06:14;100959.00;;;12.87;100.00
10881;BME280;5493;48.884;8.338;2022-10-12T07:08:40;100960.56;;;13.01;100.00
10881;BME280;5493;48.884;8.338;2022-10-12T07:11:10;100959.19;;;13.23;100.00
10881;BME280;5493;48.884;8.338;2022-10-12T07:13:37;100956.09;;;13.45;100.00
10881;BME280;5493;48.884;8.338;2022-10-12T07:16:04;100962.22;;;13.58;100.00
10881;BME280;5493;48.884;8.338;2022-10-12T07:18:31;100959.78;;;13.25;100.00
10881;BME280;5493;48.884;8.338;2022-10-12T07:20:59;100969.66;;;13.13;100.00
10881;BME280;5493;48.884;8.338;2022-10-12T07:23:28;100974.69;;;13.10;100.00
10881;BME280;5493;48.884;8.338;2022-10-12T07:25:54;100981.25;;;12.89;100.00
10881;BME280;5493;48.884;8.338;2022-10-12T07:28:21;100975.19;;;12.94;100.00
10881;BME280;5493;48.884;8.338;2022-10-12T07:30:48;100972.72;;;13.48;100.00
10881;BME280;5493;48.884;8.338;2022-10-12T07:33:15;100965.41;;;13.73;100.00
10881;BME280;5493;48.884;8.338;2022-10-12T07:35:42;100964.34;;;13.93;100.00
10881;BME280;5493;48.884;8.338;2022-10-12T07:38:10;100959.75;;;13.75;100.00
10881;BME280;5493;48.884;8.338;2022-10-12T07:40:36;100966.31;;;13.86;100.00
10881;BME280;5493;48.884;8.338;2022-10-12T07:43:03;100972.72;;;13.23;100.00
10881;BME280;5493;48.884;8.338;2022-10-12T07:45:29;100967.78;;;13.39;100.00
10881;BME280;5493;48.884;8.338;2022-10-12T07:47:56;100967.91;;;13.50;100.00
10881;BME280;5493;48.884;8.338;2022-10-12T07:50:22;100964.59;;;13.91;100.00
10881;BME280;5493;48.884;8.338;2022-10-12T07:52:49;100957.22;;;14.16;100.00
10881;BME280;5493;48.884;8.338;2022-10-12T07:55:17;100955.78;;;14.32;100.00
10881;BME280;5493;48.884;8.338;2022-10-12T07:57:44;100948.97;;;14.59;100.00
10881;BME280;5493;48.884;8.338;2022-10-12T08:00:11;100959.03;;;14.22;100.00
10881;BME280;5493;48.884;8.338;2022-10-12T08:02:37;100954.13;;;13.76;100.00
10881;BME280;5493;48.884;8.338;2022-10-12T08:05:05;100954.22;;;13.88;100.00
10881;BME280;5493;48.884;8.338;2022-10-12T08:07:31;100954.41;;;13.87;100.00
10881;BME280;5493;48.884;8.338;2022-10-12T08:09:58;100952.72;;;13.92;100.00
10881;BME280;5493;48.884;8.338;2022-10-12T08:12:26;100960.97;;;13.79;100.00
10881;BME280;5493;48.884;8.338;2022-10-12T08:14:52;100965.72;;;13.84;100.00
10881;BME280;5493;48.884;8.338;2022-10-12T08:17:19;100962.84;;;14.33;100.00
10881;BME280;5493;48.884;8.338;2022-10-12T08:19:45;100963.59;;;14.58;100.00
10881;BME280;5493;48.884;8.338;2022-10-12T08:22:12;100970.94;;;14.21;100.00
10881;BME280;5493;48.884;8.338;2022-10-12T08:24:38;100969.78;;;14.29;100.00
10881;BME280;5493;48.884;8.338;2022-10-12T08:27:05;100965.66;;;14.26;100.00
10881;BME280;5493;48.884;8.338;2022-10-12T08:29:33;100970.78;;;14.53;100.00
10881;BME280;5493;48.884;8.338;2022-10-12T08:31:59;100973.06;;;14.38;100.00
10881;BME280;5493;48.884;8.338;2022-10-12T08:34:27;100968.84;;;14.42;100.00
10881;BME280;5493;48.884;8.338;2022-10-12T08:36:55;100970.91;;;14.58;100.00
10881;BME280;5493;48.884;8.338;2022-10-12T08:39:21;100972.25;;;14.67;100.00
10881;BME280;5493;48.884;8.338;2022-10-12T08:41:54;100966.31;;;14.58;100.00
10881;BME280;5493;48.884;8.338;2022-10-12T08:44:37;100969.03;;;14.22;100.00
10881;BME280;5493;48.884;8.338;2022-10-12T08:47:11;100968.09;;;14.83;100.00
10881;BME280;5493;48.884;8.338;2022-10-12T08:49:41;100962.50;;;14.77;100.00
10881;BME280;5493;48.884;8.338;2022-10-12T08:52:21;100962.56;;;14.59;100.00
10881;BME280;5493;48.884;8.338;2022-10-12T08:54:52;100960.09;;;15.41;100.00
10881;BME280;5493;48.884;8.338;2022-10-12T08:57:20;100950.28;;;15.63;100.00
10881;BME280;5493;48.884;8.338;2022-10-12T08:59:48;100957.97;;;15.77;100.00
10881;BME280;5493;48.884;8.338;2022-10-12T09:02:32;100953.72;;;15.82;100.00
10881;BME280;5493;48.884;8.338;2022-10-12T09:05:03;100950.78;;;15.95;100.00
10881;BME280;5493;48.884;8.338;2022-10-12T09:07:34;100953.44;;;15.48;100.00
10881;BME280;5493;48.884;8.338;2022-10-12T09:10:12;100955.72;;;15.98;100.00
10881;BME280;5493;48.884;8.338;2022-10-12T09:12:50;100952.75;;;15.99;100.00
10881;BME280;5493;48.884;8.338;2022-10-12T09:15:24;100957.13;;;16.00;100.00
10881;BME280;5493;48.884;8.338;2022-10-12T09:17:53;100958.16;;;16.22;100.00
10881;BME280;5493;48.884;8.338;2022-10-12T09:20:22;100956.31;;;16.00;100.00
10881;BME280;5493;48.884;8.338;2022-10-12T09:22:54;100962.78;;;16.10;100.00
10881;BME280;5493;48.884;8.338;2022-10-12T09:25:24;100960.16;;;16.27;100.00
10881;BME280;5493;48.884;8.338;2022-10-12T09:27:51;100968.97;;;15.83;100.00
10881;BME280;5493;48.884;8.338;2022-10-12T09:30:19;100978.06;;;16.11;100.00
10881;BME280;5493;48.884;8.338;2022-10-12T09:33:03;100974.50;;;16.22;100.00
10881;BME280;5493;48.884;8.338;2022-10-12T09:35:32;100965.31;;;16.52;100.00
10881;BME280;5493;48.884;8.338;2022-10-12T09:37:59;100969.31;;;16.61;100.00
10881;BME280;5493;48.884;8.338;2022-10-12T09:40:28;100970.69;;;16.75;100.00
10881;BME280;5493;48.884;8.338;2022-10-12T09:42:58;100971.84;;;16.39;100.00
10881;BME280;5493;48.884;8.338;2022-10-12T09:45:27;100965.75;;;16.60;100.00
10881;BME280;5493;48.884;8.338;2022-10-12T09:48:17;100966.06;;;16.76;100.00
10881;BME280;5493;48.884;8.338;2022-10-12T09:50:48;100969.19;;;16.96;100.00
10881;BME280;5493;48.884;8.338;2022-10-12T09:53:22;100966.13;;;16.92;100.00
10881;BME280;5493;48.884;8.338;2022-10-12T09:55:55;100956.50;;;17.18;100.00
10881;BME280;5493;48.884;8.338;2022-10-12T09:58:24;100956.06;;;17.09;100.00
10881;BME280;5493;48.884;8.338;2022-10-12T10:01:12;100959.47;;;17.50;100.00
10881;BME280;5493;48.884;8.338;2022-10-12T10:03:43;100951.69;;;17.42;100.00
10881;BME280;5493;48.884;8.338;2022-10-12T10:06:10;100954.63;;;17.68;100.00
10881;BME280;5493;48.884;8.338;2022-10-12T10:08:41;100954.09;;;17.38;100.00
10881;BME280;5493;48.884;8.338;2022-10-12T10:11:13;100951.78;;;17.30;100.00
10881;BME280;5493;48.884;8.338;2022-10-12T10:13:47;100953.09;;;17.28;100.00
10881;BME280;5493;48.884;8.338;2022-10-12T10:16:14;100951.84;;;17.02;100.00
10881;BME280;5493;48.884;8.338;2022-10-12T10:18:44;100955.22;;;17.09;100.00
10881;BME280;5493;48.884;8.338;2022-10-12T10:21:14;100945.31;;;17.03;100.00
10881;BME280;5493;48.884;8.338;2022-10-12T10:23:43;100950.91;;;17.58;100.00
10881;BME280;5493;48.884;8.338;2022-10-12T10:26:17;100946.16;;;17.87;100.00
10881;BME280;5493;48.884;8.338;2022-10-12T10:28:46;100940.84;;;17.80;100.00
10881;BME280;5493;48.884;8.338;2022-10-12T10:31:18;100943.38;;;17.65;100.00
10881;BME280;5493;48.884;8.338;2022-10-12T10:34:08;100936.50;;;17.29;100.00
10881;BME280;5493;48.884;8.338;2022-10-12T10:36:37;100940.00;;;17.58;100.00
10881;BME280;5493;48.884;8.338;2022-10-12T10:39:15;100939.69;;;17.76;100.00
10881;BME280;5493;48.884;8.338;2022-10-12T10:41:43;100928.16;;;18.51;100.00
10881;BME280;5493;48.884;8.338;2022-10-12T10:44:26;100925.88;;;19.23;100.00
10881;BME280;5493;48.884;8.338;2022-10-12T10:46:54;100926.97;;;19.59;100.00
10881;BME280;5493;48.884;8.338;2022-10-12T10:49:27;100922.88;;;20.86;100.00
10881;BME280;5493;48.884;8.338;2022-10-12T10:51:56;100919.22;;;19.88;100.00
10881;BME280;5493;48.884;8.338;2022-10-12T10:54:27;100919.53;;;19.91;100.00
10881;BME280;5493;48.884;8.338;2022-10-12T10:56:58;100911.22;;;19.39;100.00
10881;BME280;5493;48.884;8.338;2022-10-12T10:59:35;100906.16;;;20.72;100.00
10881;BME280;5493;48.884;8.338;2022-10-12T11:02:12;100906.69;;;21.90;100.00
10881;BME280;5493;48.884;8.338;2022-10-12T11:04:45;100901.09;;;23.09;100.00
10881;BME280;5493;48.884;8.338;2022-10-12T11:07:19;100896.53;;;22.94;100.00
10881;BME280;5493;48.884;8.338;2022-10-12T11:09:52;100897.13;;;21.57;100.00
10881;BME280;5493;48.884;8.338;2022-10-12T11:12:23;100890.38;;;22.68;100.00
10881;BME280;5493;48.884;8.338;2022-10-12T11:14:53;100889.84;;;23.39;100.00
10881;BME280;5493;48.884;8.338;2022-10-12T11:17:24;100887.59;;;24.41;100.00
10881;BME280;5493;48.884;8.338;2022-10-12T11:20:04;100886.25;;;23.43;100.00
10881;BME280;5493;48.884;8.338;2022-10-12T11:22:33;100883.78;;;24.37;100.00
10881;BME280;5493;48.884;8.338;2022-10-12T11:25:07;100881.16;;;25.20;100.00
10881;BME280;5493;48.884;8.338;2022-10-12T11:27:38;100886.97;;;24.01;100.00
10881;BME280;5493;48.884;8.338;2022-10-12T11:30:13;100885.28;;;23.58;100.00
10881;BME280;5493;48.884;8.338;2022-10-12T11:32:42;100885.94;;;23.97;100.00
10881;BME280;5493;48.884;8.338;2022-10-12T11:35:16;100872.38;;;25.78;100.00
10881;BME280;5493;48.884;8.338;2022-10-12T11:37:48;100873.22;;;24.01;100.00
10881;BME280;5493;48.884;8.338;2022-10-12T11:40:20;100863.75;;;24.08;100.00
10881;BME280;5493;48.884;8.338;2022-10-12T11:42:48;100862.25;;;25.27;100.00
10881;BME280;5493;48.884;8.338;2022-10-12T11:45:21;100861.13;;;23.50;100.00
10881;BME280;5493;48.884;8.338;2022-10-12T11:47:52;100852.31;;;26.00;100.00
10881;BME280;5493;48.884;8.338;2022-10-12T11:50:28;100851.28;;;26.09;100.00
10881;BME280;5493;48.884;8.338;2022-10-12T11:52:57;100843.19;;;26.26;100.00
10881;BME280;5493;48.884;8.338;2022-10-12T11:55:36;100850.41;;;26.50;100.00
10881;BME280;5493;48.884;8.338;2022-10-12T11:58:07;100845.78;;;26.81;100.00
10881;BME280;5493;48.884;8.338;2022-10-12T12:00:40;100848.69;;;24.80;100.00
10881;BME280;5493;48.884;8.338;2022-10-12T12:03:17;100837.16;;;23.98;100.00
10881;BME280;5493;48.884;8.338;2022-10-12T12:05:46;100832.63;;;24.31;100.00
10881;BME280;5493;48.884;8.338;2022-10-12T12:08:20;100825.56;;;24.01;100.00
10881;BME280;5493;48.884;8.338;2022-10-12T12:10:52;100818.50;;;23.47;100.00
10881;BME280;5493;48.884;8.338;2022-10-12T12:13:27;100824.03;;;24.51;100.00
10881;BME280;5493;48.884;8.338;2022-10-12T12:16:25;100826.03;;;24.45;100.00
10881;BME280;5493;48.884;8.338;2022-10-12T12:19:14;100817.69;;;26.16;100.00
10881;BME280;5493;48.884;8.338;2022-10-12T12:22:20;100816.72;;;26.48;100.00
10881;BME280;5493;48.884;8.338;2022-10-12T12:24:54;100805.03;;;26.51;100.00
10881;BME280;5493;48.884;8.338;2022-10-12T12:27:27;100798.25;;;26.79;100.00
10881;BME280;5493;48.884;8.338;2022-10-12T12:29:56;100805.75;;;24.74;100.00
10881;BME280;5493;48.884;8.338;2022-10-12T12:32:24;100797.66;;;25.42;100.00
10881;BME280;5493;48.884;8.338;2022-10-12T12:34:54;100797.28;;;24.14;100.00
10881;BME280;5493;48.884;8.338;2022-10-12T12:37:25;100787.34;;;24.69;100.00
10881;BME280;5493;48.884;8.338;2022-10-12T12:39:55;100784.03;;;24.35;100.00
10881;BME280;5493;48.884;8.338;2022-10-12T12:42:24;100785.22;;;24.80;100.00
10881;BME280;5493;48.884;8.338;2022-10-12T12:44:52;100781.09;;;25.42;100.00
10881;BME280;5493;48.884;8.338;2022-10-12T12:47:36;100782.91;;;25.33;100.00
10881;BME280;5493;48.884;8.338;2022-10-12T12:50:31;100774.22;;;25.94;100.00
10881;BME280;5493;48.884;8.338;2022-10-12T12:53:05;100783.34;;;26.44;100.00
10881;BME280;5493;48.884;8.338;2022-10-12T12:55:44;100774.34;;;26.38;100.00
10881;BME280;5493;48.884;8.338;2022-10-12T12:58:29;100771.00;;;26.50;100.00
10881;BME280;5493;48.884;8.338;2022-10-12T13:01:16;100768.66;;;26.21;100.00
10881;BME280;5493;48.884;8.338;2022-10-12T13:04:00;100766.56;;;26.40;100.00